Capulin, Colorado
Current Conditions -  °F | °C
As of 7:52 PM on Saturday 22 Nov 2014 (Local Time) from KALS Reporting Station
Few Clouds Few Clouds  
Wind Chill: 26°   Ceiling: Unl
Heat Index: 26°   Visibility: 10mi
Dew Point: 14°   Wind: 3mph
Humidity: 60%   Direction: 270°W
Pressure: 29.83"   Gusts: NA
Location:  37.28°N, 106.11°W
Report Text: KALS 230252Z AUTO 27003KT 10SM FEW090 FEW110 M03/M10 A2983 RMK AO2 SLP140 T10331100 58000
Loading
Personal Weather Stations






























Interactive Weather Map New forecast layout! Learn more

10-Day Weather Forecast

Advertisements
Track Severe Weather on mobile